Terminal Aerodrome Forecast
Issued by NWS Mt. Holly, NJ

Home | Current Version | Previous Version | Text Only | Print | Product List | Glossary On
Versions: 1 2 3 4 5 6 7 8 9 10 11 12 13 14 15 16
000
FTAK31 PANC 212326
TAFABE
TAF
PABE 212326Z 2200/2224 36015KT P6SM SCT007 BKN015
      TEMPO 2200/2203 SCT015
     FM220300 02012G22KT P6SM BKN025
     FM220600 01008KT P6SM BKN025
     FM221400 34012KT P6SM SCT015 BKN025
     FM222000 34012G20KT P6SM BKN015=

USA.gov is the U.S. government's official web portal to all federal, state and local government web resources and services.